Página principal
METAR-TAF:

METAR-TAF

Aeroportos :

Aeroporto de Helsínquia-Vantaa

Helsínquia, Finlândia

latitude: 60-19N, longitude: 024-58E, altura: 51 m

Observação actual do tempo

O boletim foi feito há 23 minutos, às 03:50 UTC
Vento 9 kt de norte
Temperatura 11°C
Humidade 50%
Pressão 1028 hPa
Visibilidade 10 km ou mais
sem nuvens abaixo de 1500 metros e sem cumulonimbus

METAR: EFHK 240350Z 36009KT CAVOK 11/01 Q1028 NOSIG

Hora: 07:13 (04:13 UTC)

Previsão

O boletim foi feito há 1 hora e 43 minutos, às 02:30 UTC
Previsão válida de 24 às 03 UTC a 25 às 03 UTC
Vento 7 kt de norte
Visibilidade 10 km ou mais
sem nuvens abaixo de 1500 metros e sem cumulonimbus
Tornando-se
de 24 às 10 UTC a 24 às 12 UTC
Vento 12 kt de sudeste
Tornando-se
de 24 às 18 UTC a 24 às 20 UTC
Vento 3 kt de su-sudoeste

TAF: EFHK 240230Z 2403/2503 35007KT CAVOK BECMG 2410/2412 13012KT BECMG 2418/2420 21003KT

Observações e previsões do tempo de mais de 4000 aeroportos (mensagens METAR e TAF).

As estações disponíveis são os pontos amarelos e vermelhos sobre o mapa.

Mova o rato sobre o mapa para ver o nome da estação.

Depois clique no ponto para visualizar as observações e previsões meteorológicas.

Para alterar o mapa : clique nos botões verdes com uma cruz preta para aumentar o zoom; no botão verde com uma pitada de zoom; ou nas setas verdes para mapas adjacentes.


METAR-TAF: